Strandquist, MN (56758)

23:47 CDT le 21 octobre 2014 (GMT -0500)
Thief River Falls Regional | Change Station
CLOSE
Current Station
Aéroport
Location: Thief River Falls,
Altitude: 1115 ft
Stations météo à proximité

Alt. 1115 ft 48.06 °N, 96.18 °W | Updated 12 minutes ago

Ciel dégagé
Ciel dégagé
52 ° F
Paraît 52 ° F
N
16
Vent Variable Vent de SSE
Gusts 21 mph

Aujourd'hui
Haut(e) -- | Bas -- ° F
--% Risque de précip.
Hier
Haut(e) -- | Bas -- ° F
Precip. -- pouce
7:54 AM 6:25 PM
Lune descendante, 3% visible
Pression 29.93 pouce
Visibilité 10.0 Miles terrestres
Nuages Ciel dégagé
Point de rosée 39 ° F
Humidité 62%
Précipitations 0.00 pouce
Profondeur de la couche neigeuse Non disponible.
UV 0 sur 12
Pollen 2.30 sur 12
Qualité de l'air Non disponible.
Flu Activity Sporadic
METAR KTVF 220435Z AUTO 15014G18KT 10SM CLR 11/04 A2993 RMK AO1

More Conditions Fewer Conditions

Pression 29.93 pouce
Visibilité 10.0 Miles terrestres
Nuages Ciel dégagé
Point de rosée 39 ° F
Humidité 62%
Précipitations 0.00 pouce
Profondeur de la couche neigeuse Non disponible.
UV 0 sur 12
Pollen 2.30 sur 12
Qualité de l'air Non disponible.
Flu Activity Sporadic
METAR KTVF 220435Z AUTO 15014G18KT 10SM CLR 11/04 A2993 RMK AO1

More Conditions Fewer Conditions

10-Day Weather Forecast

Almanac

Astronomie

Oct. 21, 2014 Lever Coucher
Temps réel 07:54 CDT 18:25 CDT
Crépuscule civil 07:22 CDT 18:57 CDT
Crépuscule nautique 06:46 CDT 19:33 CDT
Crépuscule astronomique 06:10 CDT 20:09 CDT
Lune 05:29 CDT (10/21) 17:28 CDT (10/21)
Durée de lumière visible 11h 34m
Longueur du jour
10h 30m
Tomorrow will be 3m 21s shorter.
Lune descendante, 3% of the Moon is Illuminated
Oct 22
Lune descendante
Oct 23
Nouveau
Oct 30
Premier quartier
Nov 6
Pleine lune
Nov 14
Dernier quartier

Les extrêmes de température d’hier

State Highs State Lows

Community

WunderPhotos

Upload Photos

1,763,882 Photos téléchargées !

Nearby

Épaisseur de neige

Station Depth Altitude
Pas de nouvelles chutes de neige

Activité sismique

Ville Distance Mag. Time & Date
No recent earthquake activity has been reported nearby.
Minimum magnitude displayed is 2.5.

Températures des eaux côtières

Lieu Température
Aucun rapport de station

Stations météo à proximité